首页
METAR-TAF:

METAR-TAF

机场 :

山胡桃, 北卡罗来纳州, 美国

纬度: 35-44-32N, 经度: 081-22-56W, 海拔: 362米

当前天气观测

该预报发布于14分钟前的22:53 UTC
风速5节,风向西转西南
温度 27°C
湿度 45%
气压 1014 hPa
能見度: 16.1公里
天空无云

METAR: KHKY 202253Z 24005KT 10SM CLR 27/14 A2993 RMK AO2 SLP114 T02670139

时间: 19:07 (23:07 UTC)

预报

该预报发布于1小时和9分钟前的21:58 UTC
预报有效从20日的 22点(UTC)到 21日的 18点(UTC)
风速8节,风向西转西南
能見度: 10公里
散云层高于6000英尺
多云层高于10000英尺
从 21日的 0100点(UTC)
风速3节,风向西
能見度: 10公里
少量云层高于25000英尺
从 21日的 1200点(UTC)
风速4节,风向东北
能見度: 10公里
天空无云

TAF: KHKY 202158Z 2022/2118 24008KT P6SM SCT060 BKN100 FM210100 28003KT P6SM FEW250 FM211200 05004KT P6SM SKC

超过4000个机场的气象观测和天气预报(METAR&TAF报告)。

可查询的气象台以黄色和红色小点在地图上表示。

将鼠标移到小点上方,可查看气象台名称。

然后点击查看天气观测和预报。

如需切换地图:点击带黑十字的绿色按钮放大地图;点击带横线的绿色按钮缩小地图;或者点击绿色箭头查看邻近地区的地图。


METAR-TAF: